createdAt,value
2022-10-22T00:01:30.840Z,99.25
2022-10-22T00:04:02.973Z,100.00
2022-10-22T00:06:34.541Z,99.32
2022-10-22T00:09:06.715Z,100.00
2022-10-22T00:11:38.361Z,100.00
2022-10-22T00:14:10.281Z,100.00
2022-10-22T00:19:31.970Z,99.25
2022-10-22T00:22:05.879Z,98.57
2022-10-22T00:24:39.397Z,98.27
2022-10-22T00:27:13.270Z,97.42
2022-10-22T00:29:45.593Z,98.96
2022-10-22T00:32:19.769Z,98.35
2022-10-22T00:34:51.741Z,99.27
2022-10-22T00:37:23.362Z,98.47
2022-10-22T00:39:55.551Z,99.33
2022-10-22T00:42:30.394Z,99.33
2022-10-22T00:45:18.982Z,97.78
2022-10-22T00:47:59.380Z,99.00
2022-10-22T00:50:36.011Z,98.84
2022-10-22T00:53:11.811Z,98.69
2022-10-22T00:55:46.923Z,98.40
2022-10-22T00:58:21.400Z,97.74
2022-10-22T01:00:53.638Z,98.25
2022-10-22T01:03:28.362Z,95.90
2022-10-22T01:06:03.104Z,96.82
2022-10-22T01:08:44.792Z,98.34
2022-10-22T01:11:24.341Z,97.97
2022-10-22T01:14:11.880Z,95.87
2022-10-22T01:16:51.174Z,97.05
2022-10-22T01:19:49.021Z,98.35
2022-10-22T01:22:29.681Z,98.31
2022-10-22T01:25:03.400Z,97.69
2022-10-22T01:27:57.741Z,97.17
2022-10-22T01:30:32.252Z,98.34
2022-10-22T01:33:08.552Z,98.48
2022-10-22T01:35:43.492Z,98.18
2022-10-22T01:38:18.241Z,97.44
2022-10-22T01:40:51.171Z,98.11
2022-10-22T01:43:23.701Z,98.84
2022-10-22T01:46:02.351Z,96.87
2022-10-22T01:48:44.121Z,96.95
2022-10-22T01:51:44.490Z,96.21
2022-10-22T01:54:30.889Z,94.85
2022-10-22T01:57:12.092Z,93.56
2022-10-22T02:00:04.151Z,95.62
2022-10-22T02:02:52.893Z,97.41
2022-10-22T02:05:28.334Z,97.02
2022-10-22T02:08:04.961Z,96.92
2022-10-22T02:10:41.261Z,97.23
2022-10-22T02:13:19.041Z,96.25
2022-10-22T02:15:54.801Z,98.07
2022-10-22T02:18:36.404Z,98.12
2022-10-22T02:21:18.534Z,96.95
2022-10-22T02:23:51.523Z,97.03
2022-10-22T02:26:28.291Z,97.02
2022-10-22T02:29:06.321Z,98.20
2022-10-22T02:31:42.508Z,97.54
2022-10-22T02:34:22.812Z,97.55
2022-10-22T02:36:56.242Z,97.31
2022-10-22T02:39:29.821Z,97.57
2022-10-22T02:42:01.861Z,98.00
2022-10-22T02:44:33.589Z,96.19
2022-10-22T02:47:05.700Z,96.14
2022-10-22T02:49:39.891Z,96.36
2022-10-22T02:52:11.854Z,95.87
2022-10-22T02:54:43.520Z,97.53
2022-10-22T02:57:15.616Z,96.94
2022-10-22T02:59:47.222Z,97.64
2022-10-22T03:02:19.561Z,98.16
2022-10-22T03:04:53.999Z,98.92
2022-10-22T03:07:25.961Z,98.83
2022-10-22T03:09:57.572Z,99.39
2022-10-22T03:12:29.551Z,99.71
2022-10-22T03:15:01.170Z,100.00
2022-10-22T03:17:33.161Z,100.00
2022-10-22T03:20:08.002Z,99.43
2022-10-22T03:22:43.541Z,98.78
2022-10-22T03:25:19.699Z,99.28
2022-10-22T03:27:53.461Z,99.59
2022-10-22T03:30:25.121Z,99.73
2022-10-22T03:32:57.150Z,99.32
2022-10-22T03:35:31.549Z,98.89
2022-10-22T03:38:04.550Z,98.56
2022-10-22T03:40:36.331Z,97.76
2022-10-22T03:43:08.400Z,94.31
2022-10-22T03:45:39.963Z,96.54
2022-10-22T03:48:12.141Z,97.00
2022-10-22T03:50:46.371Z,97.54
2022-10-22T03:53:18.432Z,98.11
2022-10-22T03:55:50.202Z,97.83
2022-10-22T03:58:22.223Z,97.95
2022-10-22T04:00:53.835Z,98.20
2022-10-22T04:03:46.088Z,98.14
2022-10-22T04:06:20.651Z,98.29
2022-10-22T04:08:53.000Z,97.82
2022-10-22T04:11:24.669Z,97.73
2022-10-22T04:13:56.703Z,97.93
2022-10-22T04:16:31.170Z,97.69
2022-10-22T04:19:03.120Z,97.90
2022-10-22T04:21:37.772Z,97.96
2022-10-22T04:24:09.891Z,97.48
2022-10-22T04:26:41.292Z,96.62
2022-10-22T04:29:16.050Z,96.18
2022-10-22T04:31:47.881Z,95.49
2022-10-22T04:34:19.633Z,95.71
2022-10-22T04:36:53.482Z,95.59
2022-10-22T04:39:25.272Z,96.61
2022-10-22T04:41:56.670Z,95.14
2022-10-22T04:44:28.429Z,96.54
2022-10-22T04:46:59.721Z,96.87
2022-10-22T04:49:31.531Z,97.26
2022-10-22T04:52:05.471Z,97.38
2022-10-22T04:54:37.403Z,97.15
2022-10-22T04:57:08.910Z,95.54
2022-10-22T04:59:40.890Z,97.50
2022-10-22T05:02:12.212Z,96.77
2022-10-22T05:04:44.200Z,96.79
2022-10-22T05:07:18.453Z,97.14
2022-10-22T05:09:50.081Z,96.37
2022-10-22T05:12:21.422Z,96.57
2022-10-22T05:14:53.140Z,96.82
2022-10-22T05:17:24.459Z,97.06
2022-10-22T05:19:56.170Z,97.35
2022-10-22T05:22:29.992Z,97.49
2022-10-22T05:25:01.885Z,97.68
2022-10-22T05:27:33.312Z,97.56
2022-10-22T05:30:05.021Z,97.62
2022-10-22T05:32:38.140Z,97.32
2022-10-22T05:35:10.253Z,98.10
2022-10-22T05:37:46.370Z,96.94
2022-10-22T05:40:30.205Z,97.98
2022-10-22T05:43:02.701Z,98.21
2022-10-22T05:45:34.360Z,98.02
2022-10-22T05:48:05.631Z,97.17
2022-10-22T05:50:39.241Z,96.53
2022-10-22T05:53:13.881Z,96.91
2022-10-22T05:55:45.550Z,97.20
2022-10-22T05:58:17.331Z,97.55
2022-10-22T06:00:49.050Z,96.99
2022-10-22T06:03:20.340Z,96.86
2022-10-22T06:05:52.013Z,96.83
2022-10-22T06:08:26.202Z,96.02
2022-10-22T06:10:58.022Z,97.22
2022-10-22T06:13:29.501Z,97.84
2022-10-22T06:16:01.450Z,96.44
2022-10-22T06:18:32.779Z,96.34
2022-10-22T06:21:08.961Z,97.94
2022-10-22T06:23:43.823Z,98.30
2022-10-22T06:26:18.243Z,98.96
2022-10-22T06:28:49.821Z,99.58
2022-10-22T06:31:22.061Z,99.02
2022-10-22T06:33:53.682Z,98.50
2022-10-22T06:36:27.822Z,98.58
2022-10-22T06:39:02.221Z,98.60
2022-10-22T06:41:34.557Z,97.48
2022-10-22T06:44:06.150Z,96.82
2022-10-22T06:46:41.226Z,97.01
2022-10-22T06:49:17.421Z,95.97
2022-10-22T06:51:52.551Z,94.85
2022-10-22T06:54:27.455Z,94.99
2022-10-22T06:56:59.471Z,94.78
2022-10-22T06:59:31.081Z,92.83
2022-10-22T07:02:03.078Z,92.50
2022-10-22T07:04:34.681Z,94.27
2022-10-22T07:07:06.614Z,96.25
2022-10-22T07:09:40.938Z,94.54
2022-10-22T07:12:14.034Z,94.08
2022-10-22T07:14:45.750Z,94.16
2022-10-22T07:17:17.802Z,93.10
2022-10-22T07:19:51.264Z,93.23
2022-10-22T07:22:24.222Z,92.97
2022-10-22T07:30:48.060Z,91.47
2022-10-22T07:33:20.481Z,93.05
2022-10-22T07:35:52.262Z,92.21
2022-10-22T07:38:24.461Z,90.23
2022-10-22T07:40:59.361Z,89.63
2022-10-22T07:43:31.661Z,88.04
2022-10-22T07:46:03.420Z,87.22
2022-10-22T07:48:35.587Z,90.38
2022-10-22T07:51:08.022Z,91.19
2022-10-22T07:53:40.600Z,90.54
2022-10-22T07:56:15.241Z,89.79
2022-10-22T07:58:47.491Z,89.24
2022-10-22T08:01:19.319Z,88.93
2022-10-22T08:03:52.082Z,87.17
2022-10-22T08:06:23.844Z,88.01
2022-10-22T08:08:56.026Z,88.32
2022-10-22T08:11:31.330Z,87.92
2022-10-22T08:14:03.567Z,88.17
2022-10-22T08:16:35.361Z,88.19
2022-10-22T08:19:07.761Z,86.29
2022-10-22T08:21:39.503Z,86.26
2022-10-22T08:24:11.849Z,86.88
2022-10-22T08:26:50.489Z,86.98
2022-10-22T08:29:23.540Z,86.82
2022-10-22T08:31:55.988Z,87.07
2022-10-22T08:34:28.302Z,88.31
2022-10-22T08:37:00.182Z,87.06
2022-10-22T08:39:32.541Z,86.78
2022-10-22T08:42:24.222Z,88.38
2022-10-22T08:45:11.761Z,87.99
2022-10-22T08:48:02.083Z,86.96
2022-10-22T08:50:38.821Z,87.16
2022-10-22T08:53:17.610Z,87.64
2022-10-22T08:55:50.431Z,87.49
2022-10-22T08:58:31.064Z,88.38
2022-10-22T09:01:05.313Z,87.88
2022-10-22T09:03:48.241Z,88.31
2022-10-22T09:06:24.429Z,88.21
2022-10-22T09:08:57.869Z,87.95
2022-10-22T09:11:33.722Z,84.85
2022-10-22T09:14:09.229Z,86.11
2022-10-22T09:17:01.629Z,86.34
2022-10-22T09:19:38.983Z,85.46
2022-10-22T09:22:21.701Z,86.18
2022-10-22T09:25:01.218Z,87.79
2022-10-22T09:27:34.754Z,86.07
2022-10-22T09:30:10.872Z,85.37
2022-10-22T09:32:43.474Z,83.66
2022-10-22T09:35:16.412Z,86.12
2022-10-22T09:37:53.892Z,86.76
2022-10-22T09:40:25.912Z,83.56
2022-10-22T09:42:57.892Z,83.94
2022-10-22T09:45:32.011Z,83.62
2022-10-22T09:48:15.233Z,82.96
2022-10-22T09:50:48.853Z,81.94
2022-10-22T09:53:25.155Z,82.61
2022-10-22T09:55:58.452Z,79.12
2022-10-22T09:58:30.922Z,81.44
2022-10-22T10:01:05.552Z,82.88
2022-10-22T10:03:37.851Z,81.90
2022-10-22T10:06:10.372Z,83.33
2022-10-22T10:08:42.376Z,82.83
2022-10-22T10:11:22.771Z,83.77
2022-10-22T10:14:10.134Z,83.09
2022-10-22T10:16:53.119Z,83.50
2022-10-22T10:19:37.052Z,83.11
2022-10-22T10:22:16.524Z,83.61
2022-10-22T10:25:23.104Z,87.20
2022-10-22T10:28:02.423Z,85.52
2022-10-22T10:30:36.426Z,84.83
2022-10-22T10:33:24.785Z,89.09
2022-10-22T10:36:30.965Z,86.96
2022-10-22T10:39:08.172Z,85.33
2022-10-22T10:41:53.006Z,85.39
2022-10-22T10:44:50.685Z,85.99
2022-10-22T10:47:35.697Z,84.61
2022-10-22T10:50:22.195Z,87.64
2022-10-22T10:53:05.866Z,85.67
2022-10-22T10:55:56.125Z,82.42
2022-10-22T10:58:37.625Z,83.24
2022-10-22T11:01:21.439Z,82.83
2022-10-22T11:04:24.326Z,82.62
2022-10-22T11:07:11.033Z,78.93
2022-10-22T11:09:47.925Z,78.51
2022-10-22T11:12:25.606Z,78.92
2022-10-22T11:15:05.684Z,77.23
2022-10-22T11:17:42.585Z,78.53
2022-10-22T11:20:21.586Z,77.02
2022-10-22T11:23:18.946Z,76.41
2022-10-22T11:25:53.253Z,74.88
2022-10-22T11:28:30.966Z,76.14
2022-10-22T11:31:06.944Z,74.36
2022-10-22T11:33:47.106Z,71.66
2022-10-22T11:36:21.689Z,69.62
2022-10-22T11:38:56.064Z,69.33
2022-10-22T11:41:32.189Z,67.18
2022-10-22T11:44:15.110Z,68.89
2022-10-22T11:46:56.846Z,69.63
2022-10-22T11:49:30.416Z,69.63
2022-10-22T11:52:28.303Z,68.66
2022-10-22T11:55:05.648Z,69.09
2022-10-22T11:57:40.585Z,69.76
2022-10-22T12:00:35.949Z,68.26
2022-10-22T12:03:36.767Z,67.42
2022-10-22T12:06:29.931Z,70.31
2022-10-22T12:09:06.003Z,68.90
2022-10-22T12:11:55.861Z,70.69
2022-10-22T12:14:33.222Z,73.52
2022-10-22T12:17:30.670Z,76.21
2022-10-22T12:20:13.757Z,75.11
2022-10-22T12:22:54.859Z,74.32
2022-10-22T12:25:35.896Z,74.42
2022-10-22T12:28:19.216Z,73.13
2022-10-22T12:30:52.806Z,74.28
2022-10-22T12:33:27.107Z,74.44
2022-10-22T12:36:04.226Z,72.38
2022-10-22T12:38:48.585Z,71.44
2022-10-22T12:41:25.863Z,73.00
2022-10-22T12:44:05.819Z,73.69
2022-10-22T12:46:38.625Z,74.00
2022-10-22T12:49:27.311Z,71.85
2022-10-22T12:51:58.573Z,71.98
2022-10-22T12:54:38.367Z,72.67
2022-10-22T12:57:15.823Z,72.11
2022-10-22T12:59:55.043Z,70.92
2022-10-22T13:02:31.015Z,72.55
2022-10-22T13:05:30.583Z,72.61
2022-10-22T13:08:20.729Z,71.79
2022-10-22T13:10:54.356Z,70.63
2022-10-22T13:13:35.347Z,70.15
2022-10-22T13:16:24.972Z,71.34
2022-10-22T13:18:57.789Z,70.52
2022-10-22T13:21:38.263Z,71.53
2022-10-22T13:24:24.605Z,71.44
2022-10-22T13:26:58.060Z,70.57
2022-10-22T13:29:30.008Z,70.93
2022-10-22T13:32:04.273Z,70.18
2022-10-22T13:34:36.853Z,69.48
2022-10-22T13:37:12.110Z,70.52
2022-10-22T13:44:27.583Z,69.93
2022-10-22T13:46:59.458Z,69.77
2022-10-22T13:49:33.702Z,68.94
2022-10-22T13:52:05.685Z,70.40
2022-10-22T13:54:38.269Z,69.83
2022-10-22T13:57:12.220Z,69.14
2022-10-22T13:59:43.744Z,68.77
2022-10-22T14:02:16.707Z,68.61
2022-10-22T14:04:53.007Z,69.21
2022-10-22T14:07:25.043Z,69.87
2022-10-22T14:09:56.793Z,68.95
2022-10-22T14:12:28.822Z,70.34
2022-10-22T14:15:00.567Z,70.20
2022-10-22T14:17:33.464Z,70.43
2022-10-22T14:20:08.161Z,69.24
2022-10-22T14:22:40.109Z,69.98
2022-10-22T14:25:16.039Z,69.08
2022-10-22T14:27:48.338Z,69.18
2022-10-22T14:30:22.099Z,69.74
2022-10-22T14:32:54.537Z,69.24
2022-10-22T14:35:29.161Z,69.09
2022-10-22T14:38:01.119Z,69.32
2022-10-22T14:40:32.872Z,69.37
2022-10-22T14:43:04.702Z,69.49
2022-10-22T14:45:36.284Z,68.20
2022-10-22T14:48:08.853Z,68.29
2022-10-22T14:50:43.338Z,68.93
2022-10-22T14:53:17.020Z,69.26
2022-10-22T14:55:51.770Z,69.79
2022-10-22T14:58:23.692Z,70.31
2022-10-22T15:00:55.408Z,70.45
2022-10-22T15:03:27.512Z,70.37
2022-10-22T15:06:01.850Z,70.33
2022-10-22T15:08:34.393Z,70.68
2022-10-22T15:11:07.812Z,70.70
2022-10-22T15:13:41.488Z,71.11
2022-10-22T15:16:16.291Z,71.80
2022-10-22T15:18:48.568Z,71.95
2022-10-22T15:21:24.971Z,71.20
2022-10-22T15:23:57.248Z,72.22
2022-10-22T15:26:29.511Z,72.66
2022-10-22T15:29:01.835Z,72.69
2022-10-22T15:31:48.926Z,73.65
2022-10-22T15:34:26.028Z,73.64
2022-10-22T15:37:02.507Z,73.59
2022-10-22T15:39:35.533Z,73.46
2022-10-22T15:42:10.682Z,73.52
2022-10-22T15:44:43.428Z,73.89
2022-10-22T15:47:15.371Z,74.44
2022-10-22T15:49:47.987Z,74.15
2022-10-22T15:52:22.765Z,74.86
2022-10-22T15:54:54.429Z,74.95
2022-10-22T15:57:25.776Z,75.98
2022-10-22T16:00:11.852Z,76.08
2022-10-22T16:02:45.265Z,76.69
2022-10-22T16:05:17.765Z,76.74
2022-10-22T16:07:51.615Z,77.37
2022-10-22T16:10:22.919Z,77.44
2022-10-22T16:12:54.741Z,77.43
2022-10-22T16:15:25.845Z,77.67
2022-10-22T16:17:56.608Z,78.63
2022-10-22T16:20:30.114Z,78.79
2022-10-22T16:23:03.599Z,79.57
2022-10-22T16:25:40.961Z,80.03
2022-10-22T16:28:13.790Z,80.49
2022-10-22T16:30:45.430Z,80.21
2022-10-22T16:33:16.182Z,81.12
2022-10-22T16:35:47.314Z,80.73
2022-10-22T16:38:23.801Z,81.57
2022-10-22T16:40:56.352Z,81.17
2022-10-22T16:43:29.941Z,81.78
2022-10-22T16:46:01.151Z,82.81
2022-10-22T16:48:32.740Z,82.86
2022-10-22T16:51:12.571Z,83.09
2022-10-22T16:53:46.476Z,83.11
2022-10-22T16:56:27.032Z,83.81
2022-10-22T16:59:01.256Z,83.98
2022-10-22T17:01:41.924Z,83.49
2022-10-22T17:04:21.703Z,84.09
2022-10-22T17:06:58.091Z,84.38
2022-10-22T17:09:32.693Z,84.38
2022-10-22T17:12:04.531Z,84.73
2022-10-22T17:14:35.997Z,85.15
2022-10-22T17:17:08.093Z,84.72
2022-10-22T17:19:41.490Z,84.71
2022-10-22T17:22:16.229Z,84.84
2022-10-22T17:25:11.217Z,84.59
2022-10-22T17:27:43.942Z,84.22
2022-10-22T17:30:23.477Z,84.10
2022-10-22T17:32:59.190Z,84.87
2022-10-22T17:35:31.081Z,84.46
2022-10-22T17:38:03.212Z,83.64
2022-10-22T17:40:39.376Z,84.47
2022-10-22T17:43:11.551Z,84.69
2022-10-22T17:45:43.571Z,85.88
2022-10-22T17:48:15.852Z,85.47
2022-10-22T17:50:50.393Z,84.48
2022-10-22T17:53:24.370Z,84.47
2022-10-22T17:56:07.453Z,85.39
2022-10-22T17:58:40.471Z,85.62
2022-10-22T18:01:20.956Z,86.14
2022-10-22T18:03:54.294Z,86.12
2022-10-22T18:06:26.611Z,86.59
2022-10-22T18:08:59.041Z,86.66
2022-10-22T18:11:36.635Z,85.91
2022-10-22T18:14:09.412Z,87.08
2022-10-22T18:16:42.573Z,86.70
2022-10-22T18:19:17.675Z,86.39
2022-10-22T18:21:50.032Z,85.63
2022-10-22T18:24:22.754Z,85.35
2022-10-22T18:26:58.411Z,84.69
2022-10-22T18:29:31.038Z,85.56
2022-10-22T18:32:09.422Z,84.55
2022-10-22T18:34:45.611Z,83.65
2022-10-22T18:37:18.091Z,82.38
2022-10-22T18:39:50.490Z,79.78
2022-10-22T18:42:27.414Z,79.69
2022-10-22T18:45:03.451Z,79.12
2022-10-22T18:47:35.712Z,78.48
2022-10-22T18:50:09.134Z,77.53
2022-10-22T18:52:42.632Z,77.41
2022-10-22T18:55:15.511Z,77.84
2022-10-22T18:57:49.835Z,77.56
2022-10-22T19:00:21.710Z,77.80
2022-10-22T19:02:53.096Z,77.50
2022-10-22T19:05:24.957Z,77.89
2022-10-22T19:07:59.862Z,78.49
2022-10-22T19:10:31.754Z,78.68
2022-10-22T19:13:11.118Z,79.37
2022-10-22T19:15:43.169Z,79.05
2022-10-22T19:18:16.121Z,80.09
2022-10-22T19:20:50.812Z,80.19
2022-10-22T19:23:22.059Z,80.44
2022-10-22T19:26:03.431Z,80.49
2022-10-22T19:28:37.838Z,81.45
2022-10-22T19:31:10.575Z,81.39
2022-10-22T19:33:43.343Z,82.49
2022-10-22T19:36:19.837Z,81.50
2022-10-22T19:38:52.010Z,82.70
2022-10-22T19:41:27.073Z,82.50
2022-10-22T19:44:03.627Z,82.64
2022-10-22T19:46:36.229Z,83.60
2022-10-22T19:49:08.989Z,83.97
2022-10-22T19:51:41.329Z,83.72
2022-10-22T19:54:20.909Z,83.13
2022-10-22T19:56:58.330Z,83.43
2022-10-22T19:59:34.450Z,83.17
2022-10-22T20:02:07.007Z,83.69
2022-10-22T20:04:50.089Z,83.74
2022-10-22T20:07:23.316Z,84.04
2022-10-22T20:09:55.607Z,82.33
2022-10-22T20:12:39.750Z,82.23
2022-10-22T20:15:14.949Z,84.25
2022-10-22T20:17:47.748Z,84.19
2022-10-22T20:20:21.962Z,85.36
2022-10-22T20:22:58.467Z,85.18
2022-10-22T20:25:30.729Z,84.49
2022-10-22T20:28:03.248Z,85.28
2022-10-22T20:30:38.427Z,84.82
2022-10-22T20:33:10.907Z,84.76
2022-10-22T20:35:43.288Z,84.36
2022-10-22T20:38:17.968Z,84.01
2022-10-22T20:40:50.167Z,84.33
2022-10-22T20:43:22.849Z,84.37
2022-10-22T20:45:57.627Z,84.34
2022-10-22T20:48:31.807Z,84.06
2022-10-22T20:51:05.369Z,83.80
2022-10-22T20:53:37.497Z,83.22
2022-10-22T20:56:10.916Z,83.59
2022-10-22T20:58:53.986Z,82.71
2022-10-22T21:01:28.705Z,82.48
2022-10-22T21:04:00.098Z,81.84
2022-10-22T21:06:33.233Z,81.67
2022-10-22T21:09:05.782Z,81.67
2022-10-22T21:11:37.740Z,83.36
2022-10-22T21:14:11.098Z,82.99
2022-10-22T21:16:49.526Z,83.90
2022-10-22T21:19:22.705Z,83.59
2022-10-22T21:21:53.815Z,82.82
2022-10-22T21:24:26.643Z,84.11
2022-10-22T21:26:57.871Z,82.75
2022-10-22T21:29:29.297Z,83.62
2022-10-22T21:32:03.014Z,83.34
2022-10-22T21:34:38.825Z,83.56
2022-10-22T21:37:10.584Z,83.69
2022-10-22T21:39:42.274Z,83.51
2022-10-22T21:42:18.076Z,83.68
2022-10-22T21:44:49.699Z,83.98
2022-10-22T21:47:23.676Z,83.59
2022-10-22T21:49:56.785Z,82.77
2022-10-22T21:52:28.755Z,82.85
2022-10-22T21:55:00.917Z,81.80
2022-10-22T21:57:32.887Z,82.30
2022-10-22T22:00:05.240Z,81.30
2022-10-22T22:02:40.047Z,82.48
2022-10-22T22:05:13.336Z,82.80
2022-10-22T22:07:45.257Z,83.33
2022-10-22T22:10:17.537Z,83.38
2022-10-22T22:12:49.395Z,83.89
2022-10-22T22:15:22.997Z,82.82
2022-10-22T22:17:57.583Z,84.11
2022-10-22T22:20:29.935Z,84.18
2022-10-22T22:23:01.795Z,84.79
2022-10-22T22:25:34.003Z,85.01
2022-10-22T22:28:05.974Z,85.33
2022-10-22T22:30:38.374Z,85.82
2022-10-22T22:33:12.974Z,85.48
2022-10-22T22:35:45.478Z,86.32
2022-10-22T22:38:17.515Z,86.94
2022-10-22T22:40:49.714Z,86.65
2022-10-22T22:43:21.556Z,87.54
2022-10-22T22:46:02.497Z,88.68
2022-10-22T22:48:37.617Z,88.31
2022-10-22T22:51:10.955Z,87.82
2022-10-22T22:53:42.898Z,88.05
2022-10-22T22:56:16.756Z,88.47
2022-10-22T22:59:09.015Z,88.33
2022-10-22T23:01:45.633Z,88.91
2022-10-22T23:04:23.893Z,88.96
2022-10-22T23:06:58.710Z,89.13
2022-10-22T23:10:07.477Z,89.42
2022-10-22T23:12:39.884Z,89.87
2022-10-22T23:15:12.719Z,89.73
2022-10-22T23:17:45.020Z,89.88
2022-10-22T23:20:19.618Z,90.10
2022-10-22T23:22:51.879Z,90.37
2022-10-22T23:25:23.765Z,89.42
2022-10-22T23:27:55.938Z,90.16
2022-10-22T23:30:27.997Z,90.55
2022-10-22T23:33:00.084Z,90.83
2022-10-22T23:35:34.696Z,90.69
2022-10-22T23:38:06.859Z,89.56
2022-10-22T23:40:38.757Z,90.95
2022-10-22T23:43:12.038Z,91.22
2022-10-22T23:45:43.819Z,91.79
2022-10-22T23:48:15.977Z,91.24
2022-10-22T23:50:50.946Z,91.96
2022-10-22T23:53:23.077Z,91.42
2022-10-22T23:55:54.937Z,91.57
2022-10-22T23:58:27.097Z,92.03
